header
chart

Reported and forecast weather at local airports

Important: not to be used for flight planning purposes.


EGBB METAR fetched   Friday 18th Sep @ 19:01:57
EGBB 181750Z 06011KT 030V090 CAVOK 16/08 Q1022

EGCC METAR fetched   Friday 18th Sep @ 19:01:51
EGCC 181750Z AUTO 06009KT 9999 NCD 15/08 Q1023

EGGP METAR fetched   Friday 18th Sep @ 19:01:53
EGGP 181750Z 08013KT CAVOK 16/09 Q1023

EGNH METAR fetched   Friday 18th Sep @ 19:01:54
EGNH 181750Z 09009G19KT 060V120 CAVOK 16/09 Q1024

EGNM METAR fetched   Friday 18th Sep @ 19:01:55
EGNM 181750Z 07009KT 9999 FEW025 12/09 Q1025

EGOV METAR fetched   Friday 18th Sep @ 19:01:58
EGOV 181650Z 05018KT CAVOK 16/10 Q1022 NOSIG RMK BLU BLU


EGBB TAF fetched   Friday 18th Sep @ 19:01:57
TAF EGBB 181651Z 1818/1918 06010KT 9999 FEW020 PROB30 TEMPO 1914/1918 05015G25KT

EGCC TAF fetched   Friday 18th Sep @ 19:01:52
TAF EGCC 181652Z 1818/1924 07009KT 9999 FEW040= TAF EGGW 181704Z 1818/1918 05012KT CAVOK PROB30 TEMPO 1909/1918 05015G25KT

EGGP TAF fetched   Friday 18th Sep @ 19:01:53
TAF EGGP 181652Z 1818/1918 08009KT 9999 FEW040

EGNM TAF fetched   Friday 18th Sep @ 19:01:56
TAF TAF EGNM 181652Z 1818/1918 07009KT 9999 SCT030 PROB30 TEMPO 1902/1908 BKN007

EGOV TAF fetched   Friday 18th Sep @ 19:01:59
TAF TAF EGOV 190525Z 1906/1918 04008KT CAVOK PROB30 TEMPO 1906/1912 6000 SHRA TEMPO 1912/1915 4000 +SHRA SCT020 BKN030CB PROB30 TEMPO 1913/1915 VRBG20G30KT 2500 TSGR BKN012

Every effort is made to ensure that this information is free from errors but as it is provided by a third party the accuracy of the reports cannot be guaranteed.